Main page
METAR-TAF:

METAR-TAF

Airports :

RAF Waddington

Waddington, England

latitude: 53-10N, longitude: 000-31W, elevation: 68 m

Current weather observation

The report was made 18 minutes ago, at 08:50 UTC
Wind 10 kt from the West/Southwest
Temperature 16°C
Humidity 77%
Pressure 1025 hPa
Visibility 10 km or more
Few clouds at a height of 1600 ft
Broken clouds at a height of 25000 ft

METAR: EGXW 210850Z 25010KT 9999 FEW016 BKN250 16/12 Q1025 NOSIG RMK BLU BLU

Time: 10:08 (09:08 UTC)

Forecast

The report was made 1 hour and 49 minutes ago, at 07:19 UTC
Forecast valid from 21 at 09 UTC to 22 at 03 UTC
Wind 12 kt from the Southwest
Visibility 10 km or more
Few clouds at a height of 2000 ft
Probability 30% :
Temporary
from 21 at 12 UTC to 21 at 16 UTC
Visibility: 7000 m
rain showers

TAF: EGXW 210719Z 2109/2203 23012KT 9999 FEW020 PROB30 TEMPO 2112/2116 7000 SHRA

Weather observations and forecasts of more than 4000 airports (METAR and TAF reports).

The available stations are represented by yellow and red dots on the map.

Hover mouse over dot to see the name of the station.

Then click to see weather observations and forecasts.

To change the map : click on the green buttons with a black cross to zoom in, on the green button with a dash to zoom out, or on the green arrows for adjacent maps.


METAR-TAF: